Flight Track Log - Related Links

Times and Time Zones

All times are in EST time to prevent confusion due to time zone crossing. See the N400CE flight status page for this flight to view local times or setup timezone preferences in your user account.

Time Position Orientation Groundspeed Altitude Reporting Facility
EST Latitude Longitude Course Direction KTS MPH feet Rate Location/Type
Mon 12:42:23 PM 35.4686 -82.6644 180° South 186 214 6,600  Level Atlanta Center
Mon 12:43:23 PM 35.4289 -82.6522 166° South 136 157 7,500 750 Climbing Atlanta Center
Mon 12:44:00 PM 35.1410 -82.5149 180° South  Level Estimated
Mon 12:44:23 PM 35.3911 -82.6478 175° South 142 163 8,100  Level Atlanta Center
Mon 12:45:23 PM 35.3494 -82.6408 172° South 142 163 8,900 800 Climbing Atlanta Center
Mon 12:46:23 PM 35.3075 -82.6389 178° South 142 163 9,700 600 Climbing Atlanta Center
Mon 12:47:23 PM 35.2658 -82.6372 178° South 142 163 10,100 450 Climbing Atlanta Center
Mon 12:48:23 PM 35.2178 -82.6406 183° South 148 170 10,600 500 Climbing Atlanta Center
Mon 12:49:23 PM 35.1739 -82.6286 167° South 158 182 11,100 500 Climbing Atlanta Center
Mon 12:50:23 PM 35.1300 -82.6217 173° South 163 188 11,600 550 Climbing Atlanta Center
Mon 12:51:23 PM 35.0864 -82.6225 181° South 163 188 12,200 600 Climbing Atlanta Center
Mon 12:52:23 PM 35.0403 -82.6181 175° South 158 182 12,800 550 Climbing Atlanta Center
Mon 12:53:23 PM 34.9986 -82.6111 172° South 158 182 13,300 600 Climbing Atlanta Center
Mon 12:54:23 PM 34.9525 -82.6094 178° South 158 182 14,000 650 Climbing Atlanta Center
Mon 12:55:23 PM 34.9067 -82.6028 173° South 158 182 14,600 600 Climbing Atlanta Center
Mon 12:56:23 PM 34.8647 -82.5958 172° South 158 182 15,200 600 Climbing Atlanta Center
Mon 12:57:23 PM 34.8208 -82.5889 173° South 158 182 15,800 600 Climbing Atlanta Center
Mon 12:58:23 PM 34.7769 -82.5847 176° South 158 182 16,400 500 Climbing Atlanta Center
Mon 12:59:23 PM 34.7331 -82.5778 173° South 158 182 16,800 350 Climbing Atlanta Center
Mon 01:00:23 PM 34.6869 -82.5711 173° South 163 188 17,100 100 Climbing Atlanta Center
Mon 01:01:23 PM 34.6308 -82.5694 179° South 175 201 17,000 -50 Descending Atlanta Center
Mon 01:02:23 PM 34.5806 -82.5653 176° South 180 207 17,000  Level Atlanta Center
Mon 01:03:23 PM 34.5283 -82.5639 179° South 180 207 17,000  Level Atlanta Center
Mon 01:04:23 PM 34.4761 -82.5572 174° South 180 207 17,000  Level Atlanta Center
Mon 01:05:23 PM 34.4219 -82.5531 176° South 185 213 17,000  Level Atlanta Center
Mon 01:06:23 PM 34.3717 -82.5489 176° South 185 213 17,000  Level Atlanta Center
Mon 01:07:23 PM 34.3175 -82.5447 176° South 185 213 17,000  Level Atlanta Center
Mon 01:08:23 PM 34.2631 -82.5408 177° South 196 226 17,000  Level Atlanta Center
Mon 01:09:23 PM 34.2108 -82.5367 176° South 196 226 17,000  Level Atlanta Center
Mon 01:10:23 PM 34.1586 -82.5325 176° South 196 226 17,000  Level Atlanta Center
Mon 01:11:23 PM 34.0958 -82.5311 179° South 203 234 17,000  Level Atlanta Center
Mon 01:12:23 PM 34.0436 -82.5247 174° South 203 234 17,000  Level Atlanta Center
Mon 01:13:23 PM 33.9914 -82.5181 174° South 194 223 17,000  Level Atlanta Center
Mon 01:14:23 PM 33.9392 -82.5139 176° South 194 223 17,000  Level Atlanta Center
Mon 01:15:23 PM 33.8869 -82.5050 172° South 204 235 17,000  Level Atlanta Center
Mon 01:16:23 PM 33.8325 -82.5008 176° South 204 235 17,000  Level Atlanta Center
Mon 01:17:23 PM 33.7825 -82.4967 176° South 188 216 17,000  Level Atlanta Center
Mon 01:18:23 PM 33.7219 -82.4928 177° South 209 241 17,000  Level Atlanta Center
Mon 01:19:23 PM 33.6675 -82.4864 174° South 198 228 17,000  Level Atlanta Center
Mon 01:20:23 PM 33.6089 -82.4800 175° South 198 228 17,000 50 Level Atlanta Center
Mon 01:21:23 PM 33.5589 -82.4733 174° South 193 222 17,100 50 Climbing Atlanta Center
Mon 01:22:23 PM 33.5067 -82.4642 172° South 198 228 17,100  Level Atlanta Center
Mon 01:23:23 PM 33.4500 -82.4578 175° South 203 234 17,100 -50 Level Atlanta Center
Mon 01:24:23 PM 33.3958 -82.4514 174° South 203 234 17,000  Descending Atlanta Center
Mon 01:25:23 PM 33.3394 -82.4475 177° South 198 228 17,100 50 Climbing Atlanta Center
Mon 01:26:23 PM 33.2869 -82.4358 169° South 192 221 17,100  Level Atlanta Center
Mon 01:27:23 PM 33.2328 -82.4319 177° South 197 227 17,100 -50 Level Atlanta Center
Mon 01:28:23 PM 33.1806 -82.4281 176° South 202 232 17,000  Descending Atlanta Center
Mon 01:29:23 PM 33.1261 -82.4217 174° South 202 232 17,100  Climbing Atlanta Center
Mon 01:30:23 PM 33.0717 -82.4153 174° South 202 232 17,000 -50 Descending Atlanta Center
Mon 01:31:23 PM 33.0175 -82.4111 176° South 197 227 17,000 50 Level Atlanta Center
Mon 01:32:23 PM 32.9653 -82.4072 176° South 197 227 17,100  Climbing Atlanta Center
Mon 01:33:23 PM 32.9086 -82.4008 175° South 197 227 17,000 -50 Descending Atlanta Center
Mon 01:34:23 PM 32.8564 -82.3944 174° South 197 227 17,000 50 Level Atlanta Center
Mon 01:35:23 PM 32.8042 -82.3928 178° South 197 227 17,100  Climbing Atlanta Center
Mon 01:36:23 PM 32.7478 -82.3867 175° South 197 227 17,000 -50 Descending Atlanta Center
Mon 01:37:23 PM 32.6956 -82.3778 172° South 197 227 17,000  Level Atlanta Center
Mon 01:39:07 PM 32.6039 -82.3647 173° South 198 228 17,000  Level Jacksonville Center
Mon 01:40:07 PM 32.5517 -82.3628 178° South 198 228 17,000  Level Jacksonville Center
Mon 01:41:07 PM 32.4972 -82.3581 176° South 198 228 17,000  Level Jacksonville Center
Mon 01:42:07 PM 32.4450 -82.3511 174° South 198 228 17,000  Level Jacksonville Center
Mon 01:43:07 PM 32.3928 -82.3439 173° South 198 228 17,000  Level Jacksonville Center
Mon 01:44:07 PM 32.3386 -82.3247 163° South 198 228 17,000  Level Jacksonville Center
Mon 01:45:07 PM 32.2861 -82.3003 159° South 206 237 17,000  Level Jacksonville Center
Mon 01:46:07 PM 32.2361 -82.2811 162° South 206 237 17,000  Level Jacksonville Center
Mon 01:47:07 PM 32.1794 -82.2569 160° South 206 237 17,000  Level Jacksonville Center
Mon 01:48:07 PM 32.1314 -82.2350 159° South 206 237 17,000  Level Jacksonville Center
Mon 01:49:07 PM 32.0728 -82.2111 161° South 206 237 17,000  Level Jacksonville Center
Mon 01:50:07 PM 32.0164 -82.1869 160° South 206 237 17,000  Level Jacksonville Center
Mon 01:51:07 PM 31.9683 -82.1678 161° South 206 237 17,000  Level Jacksonville Center
Mon 01:52:07 PM 31.9075 -82.1436 161° South 206 237 17,000  Level Jacksonville Center
Mon 01:53:07 PM 31.8531 -82.1222 162° South 211 243 17,000  Level Jacksonville Center
Mon 01:54:07 PM 31.8050 -82.1006 159° South 206 237 17,000  Level Jacksonville Center
Mon 01:55:07 PM 31.7464 -82.0767 161° South 206 237 17,000  Level Jacksonville Center
Mon 01:56:07 PM 31.6961 -82.0550 160° South 206 237 17,000  Level Jacksonville Center
Mon 01:57:07 PM 31.6375 -82.0286 159° South 206 237 17,000 -100 Level Jacksonville Center
Mon 01:58:07 PM 31.5808 -82.0072 162° South 206 237 16,800 -200 Descending Jacksonville Center
Mon 01:59:07 PM 31.5306 -81.9883 162° South 215 247 16,600 -200 Descending Jacksonville Center
Mon 02:00:07 PM 31.4658 -81.9622 161° South 215 247 16,400 -200 Descending Jacksonville Center
Mon 02:01:07 PM 31.4156 -81.9481 166° South 220 253 16,200 -150 Descending Jacksonville Center
Mon 02:02:07 PM 31.3592 -81.9292 164° South 220 253 16,100 -50 Descending Jacksonville Center
Mon 02:03:07 PM 31.3044 -81.8933 151° Southeast 220 253 16,100  Level Jacksonville Center
Mon 02:04:07 PM 31.2542 -81.8550 147° Southeast 220 253 16,100  Level Jacksonville Center
Mon 02:05:07 PM 31.2078 -81.8142 143° Southeast 220 253 16,100  Level Jacksonville Center
Mon 02:06:07 PM 31.1572 -81.7758 147° Southeast 220 253 16,100  Level Jacksonville Center
Mon 02:07:07 PM 31.1069 -81.7375 147° Southeast 214 246 16,100  Level Jacksonville Center
Mon 02:08:07 PM 31.0564 -81.6994 147° Southeast 214 246 16,100  Level Jacksonville Center
Mon 02:09:07 PM 31.0081 -81.6686 151° Southeast 214 246 16,100  Level Jacksonville Center
Mon 02:10:07 PM 30.9619 -81.6328 146° Southeast 209 241 16,100 -50 Level Jacksonville Center
Mon 02:11:07 PM 30.9175 -81.5969 145° Southeast 204 235 16,000  Descending Jacksonville Center
Mon 02:12:08 PM 30.8733 -81.5589 144° Southeast 198 228 16,100 50 Climbing Jacksonville Center
Mon 02:13:07 PM 30.8250 -81.5258 150° Southeast 192 221 16,100  Level Jacksonville Center
Mon 02:14:07 PM 30.7808 -81.4900 145° Southeast 192 221 16,100  Level Jacksonville Center
Mon 02:15:07 PM 30.7344 -81.4569 149° Southeast 192 221 16,100  Level Jacksonville Center
Mon 02:16:07 PM 30.6844 -81.4578 181° South 174 200 16,100  Level Jacksonville Center
Mon 02:17:07 PM 30.6342 -81.4586 181° South 174 200 16,100  Level Jacksonville Center
Mon 02:18:07 PM 30.5822 -81.4664 187° South 185 213 16,100  Level Jacksonville Center
Mon 02:19:07 PM 30.5300 -81.4722 185° South 185 213 16,100  Level Jacksonville Center
Mon 02:20:07 PM 30.4778 -81.4728 181° South 190 219 16,100  Level Jacksonville Center
Mon 02:21:07 PM 30.4278 -81.4761 183° South 190 219 16,100  Level Jacksonville Center
Mon 02:22:07 PM 30.3778 -81.4911 195° South 190 219 16,100 -50 Level Jacksonville Center
Mon 02:23:07 PM 30.3300 -81.5039 193° South 185 213 16,000 -50 Descending Jacksonville Center
Mon 02:24:07 PM 30.2800 -81.5142 190° South 185 213 16,000 50 Level Jacksonville Center
Mon 02:25:07 PM 30.2300 -81.5269 192° South 185 213 16,100 50 Climbing Jacksonville Center
Mon 02:26:07 PM 30.1822 -81.5494 202° Southwest 185 213 16,100  Level Jacksonville Center
Mon 02:27:07 PM 30.1344 -81.5739 204° Southwest 190 219 16,100  Level Jacksonville Center
Mon 02:28:07 PM 30.0867 -81.5964 202° Southwest 190 219 16,100  Level Jacksonville Center
Mon 02:29:07 PM 30.0389 -81.6161 200° South 190 219 16,100  Level Jacksonville Center
Mon 02:30:07 PM 29.9931 -81.6408 205° Southwest 190 219 16,100 -50 Level Jacksonville Center
Mon 02:31:07 PM 29.9494 -81.6700 210° Southwest 190 219 16,000  Descending Jacksonville Center
Mon 02:32:07 PM 29.9081 -81.6969 209° Southwest 190 219 16,100 50 Climbing Jacksonville Center
Mon 02:33:07 PM 29.8644 -81.7286 212° Southwest 179 206 16,100 -50 Level Jacksonville Center
Mon 02:34:07 PM 29.8208 -81.7578 210° Southwest 179 206 16,000 -50 Descending Jacksonville Center
Mon 02:35:07 PM 29.7775 -81.7869 210° Southwest 179 206 16,000  Level Jacksonville Center
Mon 02:36:07 PM 29.7358 -81.8161 211° Southwest 179 206 16,000  Level Jacksonville Center
Mon 02:37:07 PM 29.6922 -81.8453 210° Southwest 179 206 16,000 100 Level Jacksonville Center
Mon 02:38:07 PM 29.6486 -81.8722 208° Southwest 179 206 16,200 200 Climbing Jacksonville Center
Mon 02:39:07 PM 29.6050 -81.8964 206° Southwest 179 206 16,400 200 Climbing Jacksonville Center
Mon 02:40:07 PM 29.5633 -81.9208 207° Southwest 179 206 16,600 150 Climbing Jacksonville Center
Mon 02:41:07 PM 29.5153 -81.9214 181° South 169 194 16,700 150 Climbing Jacksonville Center
Mon 02:42:07 PM 29.4611 -81.9100 170° South 169 194 16,900 200 Climbing Jacksonville Center
Mon 02:43:07 PM 29.4108 -81.9056 176° South 179 206 17,100 50 Climbing Jacksonville Center
Mon 02:44:07 PM 29.3567 -81.8989 174° South 185 213 17,000 -50 Descending Jacksonville Center
Mon 02:45:07 PM 29.3022 -81.8947 176° South 196 226 17,000  Level Jacksonville Center
Mon 02:46:07 PM 29.2458 -81.8906 176° South 196 226 17,000  Level Jacksonville Center
Mon 02:47:07 PM 29.2000 -81.8817 170° South 196 226 17,000  Level Jacksonville Center
Mon 02:48:07 PM 29.1436 -81.8822 180° South 196 226 17,000 -50 Level Jacksonville Center
Mon 02:49:07 PM 29.0914 -81.8731 171° South 196 226 16,900  Descending Jacksonville Center
Mon 02:50:07 PM 29.0328 -81.8689 176° South 196 226 17,000 50 Climbing Jacksonville Center
Mon 02:51:07 PM 28.9828 -81.8625 174° South 196 226 17,000  Level Jacksonville Center
Mon 02:52:07 PM 28.9219 -81.8558 175° South 196 226 17,000  Level Jacksonville Center
Mon 02:53:07 PM 28.8719 -81.8494 174° South 196 226 17,000  Level Jacksonville Center
Mon 02:54:07 PM 28.8175 -81.8406 172° South 196 226 17,000  Level Jacksonville Center
Mon 02:55:07 PM 28.7675 -81.8339 173° South 196 226 17,000 -150 Level Jacksonville Center
Mon 02:56:07 PM 28.7111 -81.8275 174° South 196 226 16,700 -400 Descending Jacksonville Center
Mon 02:57:07 PM 28.6547 -81.8256 178° South 201 231 16,200 -100 Descending Jacksonville Center
Mon 02:58:07 PM 28.6003 -81.8239 178° South 201 231 16,500 100 Climbing Jacksonville Center
Mon 02:59:07 PM 28.5503 -81.8197 176° South 194 223 16,400 -50 Descending Jacksonville Center
Mon 03:00:07 PM 28.4919 -81.8225 182° South 194 223 16,400  Level Jacksonville Center
Mon 03:01:39 PM 28.4192 -81.8225 180° South 198 228 16,400  Level Miami Center
Mon 03:02:39 PM 28.3631 -81.8225 180° South 198 228 16,400 50 Level Miami Center
Mon 03:03:39 PM 28.3108 -81.8225 180° South 198 228 16,500 50 Climbing Miami Center
Mon 03:04:39 PM 28.2586 -81.8225 180° South 198 228 16,500  Level Miami Center
Mon 03:05:39 PM 28.2044 -81.8203 178° South 198 228 16,500  Level Miami Center
Mon 03:06:39 PM 28.1522 -81.8203 180° South 198 228 16,500  Level Miami Center
Mon 03:07:39 PM 28.0981 -81.8203 180° South 198 228 16,500  Level Miami Center
Mon 03:08:39 PM 28.0439 -81.8203 180° South 198 228 16,500  Level Miami Center
Mon 03:09:39 PM 27.9897 -81.8203 180° South 198 228 16,500  Level Miami Center
Mon 03:10:39 PM 27.9353 -81.8203 180° South 198 228 16,500  Level Miami Center
Mon 03:11:39 PM 27.8811 -81.8200 180° South 198 228 16,500  Level Miami Center
Mon 03:12:39 PM 27.8269 -81.8200 180° South 198 228 16,500  Level Miami Center
Mon 03:13:39 PM 27.7642 -81.8197 180° South 198 228 16,500  Level Miami Center
Mon 03:14:39 PM 27.7100 -81.8219 182° South 198 228 16,500  Level Miami Center
Mon 03:15:39 PM 27.6556 -81.8219 180° South 198 228 16,500  Level Miami Center
Mon 03:16:39 PM 27.6056 -81.8222 180° South 198 228 16,500  Level Miami Center
Mon 03:17:39 PM 27.5431 -81.8219 180° South 198 228 16,500 -200 Level Miami Center
Mon 03:18:39 PM 27.4867 -81.8217 180° South 198 228 16,100 -600 Descending Miami Center
Mon 03:19:39 PM 27.4261 -81.8239 182° South 203 234 15,300 -750 Descending Miami Center
Mon 03:20:39 PM 27.3633 -81.8258 182° South 219 252 14,600 -600 Descending Miami Center
Mon 03:21:39 PM 27.3028 -81.8303 184° South 219 252 14,100 -600 Descending Miami Center
Mon 03:22:39 PM 27.2442 -81.8322 182° South 219 252 13,400 -800 Descending Miami Center
Mon 03:23:39 PM 27.1814 -81.8367 184° South 219 252 12,500 -1,000 Descending Miami Center
Mon 03:24:39 PM 27.1208 -81.8386 182° South 219 252 11,400 -1,000 Descending Miami Center
Mon 03:25:39 PM 27.0581 -81.8406 182° South 219 252 10,500 -1,150 Descending Miami Center
Mon 03:26:39 PM 26.9975 -81.8475 186° South 224 258 9,100 -1,300 Descending Miami Center
Mon 03:27:39 PM 26.9347 -81.8517 183° South 224 258 7,900 -1,300 Descending Miami Center
Mon 03:28:39 PM 26.8719 -81.8558 183° South 230 265 6,500 -1,400 Descending Miami Center
Mon 03:29:39 PM 26.8097 -81.8394 167° South 230 265 5,100 -1,200 Descending Miami Center
Mon 03:30:39 PM 26.7542 -81.8208 163° South 230 265 4,100 -800 Descending Miami Center
Mon 03:31:39 PM 26.7003 -81.8044 165° South 215 247 3,500 -600 Descending Miami Center
Mon 03:33:00 PM 26.6329 -81.7938 172° South  Level FlightAware Approximate
Mon 03:40:00 PM 26.2808 -81.7667 180° South  Level FlightAware Approximate
Mon 03:41:00 PM 26.2303 -81.7667 180° South  Level FlightAware Approximate
Mon 03:42:00 PM 26.1799 -81.7667 180° South  Level FlightAware Approximate
Mon 03:43:00 PM 26.1500 -81.7667 180° South  Level FlightAware Approximate
Mon 03:44:00 PM 26.1524 -81.7756 180° South  Level Estimated
Mon 03:45:00 PM 26.1524 -81.7756 180° South  Level Estimated
Mon 03:46:00 PM 26.1524 -81.7756 180° South  Level Estimated
Mon 03:47:00 PM 26.1524 -81.7756 180° South  Level Estimated
Mon 03:48:00 PM 26.1524 -81.7756 180° South  Level Estimated
Mon 03:49:00 PM 26.1524 -81.7756 180° South  Level Estimated
Mon 03:50:00 PM 26.1524 -81.7756 180° South  Level Estimated
Mon 03:51:00 PM 26.1524 -81.7756 180° South  Level Estimated
Mon 03:52:00 PM 26.1524 -81.7756 180° South  Level Estimated
Mon 03:53:00 PM 26.1524 -81.7756 180° South  Level Estimated

Login

Don't have an account? Register now (free) for customized features, flight alerts, and more!